Time;durP1;ratioP1;P1;durP2;ratioP2;P2;SDS_P1;SDS_P2;PMS_P1;PMS_P2;Temp;Humidity;BMP_temperature;BMP_pressure;BME280_temperature;BME280_humidity;BME280_pressure;Samples;Min_cycle;Max_cycle;Signal;HPM_P1;HPM_P2
2022/06/04 00:02:12;;;;;;;;;;;;;;;;;;5020885;28;19921;-63
2022/06/04 00:04:38;;;;;;;;;;;;;;;;;;5020894;28;19967;-63
2022/06/04 00:07:04;;;;;;;;;;;;;;;;;;5019932;28;19922;-63
2022/06/04 00:09:30;;;;;;;;;;;;;;;;;;5020428;28;19928;-63
2022/06/04 00:17:25;;;;;;;;;;;;;;;;;;5016994;28;20271;-63
2022/06/04 00:19:51;;;;;;;;;;;;;;;;;;5017808;28;19941;-63
2022/06/04 00:22:17;;;;;;;;;;;;;;;;;;5016705;28;19921;-63
2022/06/04 00:24:43;;;;;;;;;;;;;;;;;;5017532;28;19921;-63
2022/06/04 00:27:09;;;;;;;;;;;;;;;;;;5033504;28;20002;-63
2022/06/04 00:29:35;;;;;;;;;;;;;;;;;;5036310;28;19928;-63
2022/06/04 00:32:02;;;;;;;;;;;;;;;;;;5036946;28;19925;-63
2022/06/04 00:34:28;;;;;;;;;;;;;;;;;;5036842;28;19971;-63
2022/06/04 00:36:54;;;;;;;;;;;;;;;;;;5036531;28;20303;-63
2022/06/04 00:39:20;;;;;;;;;;;;;;;;;;5036079;28;19932;-63
2022/06/04 00:41:46;;;;;;;;;;;;;;;;;;5036965;28;19929;-63
2022/06/04 00:44:20;;;;;;;;;;;;;;;;;;5036635;28;19921;-63
2022/06/04 00:46:47;;;;;;;;;;;;;;;;;;5036827;28;19921;-63
2022/06/04 00:49:13;;;;;;;;;;;;;;;;;;5036587;28;19929;-63
2022/06/04 00:51:39;;;;;;;;;;;;;;;;;;5036372;28;20407;-63
2022/06/04 00:54:05;;;;;;;;;;;;;;;;;;5036311;28;19956;-63
2022/06/04 00:56:31;;;;;;;;;;;;;;;;;;5036671;28;19929;-63
2022/06/04 00:58:57;;;;;;;;;;;;;;;;;;5035905;28;19925;-63
2022/06/04 01:01:23;;;;;;;;;;;;;;;;;;5036545;28;20465;-63
2022/06/04 01:03:49;;;;;;;;;;;;;;;;;;5036409;28;19922;-63
2022/06/04 01:06:15;;;;;;;;;;;;;;;;;;5035381;28;19929;-63
2022/06/04 01:08:41;;;;;;;;;;;;;;;;;;5035813;28;19925;-63
2022/06/04 01:11:07;;;;;;;;;;;;;;;;;;5036329;28;20319;-63
2022/06/04 01:13:33;;;;;;;;;;;;;;;;;;5036013;28;20021;-63
2022/06/04 01:15:59;;;;;;;;;;;;;;;;;;5036114;28;19929;-63
2022/06/04 01:18:25;;;;;;;;;;;;;;;;;;5035911;28;19921;-63
2022/06/04 01:20:51;;;;;;;;;;;;;;;;;;5035472;28;19988;-63
2022/06/04 01:23:17;;;;;;;;;;;;;;;;;;5036448;28;19924;-63
2022/06/04 01:25:43;;;;;;;;;;;;;;;;;;5031660;28;19976;-63
2022/06/04 01:28:09;;;;;;;;;;;;;;;;;;5015382;28;20004;-63
2022/06/04 01:30:35;;;;;;;;;;;;;;;;;;5015763;28;20371;-63
2022/06/04 01:33:01;;;;;;;;;;;;;;;;;;5016057;28;20021;-63
2022/06/04 01:35:27;;;;;;;;;;;;;;;;;;5015310;28;19983;-63
2022/06/04 01:37:53;;;;;;;;;;;;;;;;;;5015769;28;19922;-63
2022/06/04 01:43:03;;;;;;;;;;;;;;;;;;5015150;28;20368;-63
2022/06/04 01:45:30;;;;;;;;;;;;;;;;;;5015644;28;19921;-63
2022/06/04 01:47:55;;;;;;;;;;;;;;;;;;5016006;28;20017;-63
2022/06/04 01:50:21;;;;;;;;;;;;;;;;;;5014752;28;20420;-63
2022/06/04 01:52:47;;;;;;;;;;;;;;;;;;5015668;28;19921;-63
2022/06/04 01:55:14;;;;;;;;;;;;;;;;;;5015920;28;19961;-63
2022/06/04 01:57:40;;;;;;;;;;;;;;;;;;5015467;28;19926;-63
2022/06/04 02:00:06;;;;;;;;;;;;;;;;;;5015755;28;19935;-63
2022/06/04 02:02:32;;;;;;;;;;;;;;;;;;5015684;28;19928;-63
2022/06/04 02:04:58;;;;;;;;;;;;;;;;;;5014861;28;19921;-63
2022/06/04 02:07:33;;;;;;;;;;;;;;;;;;5015496;28;19971;-63
2022/06/04 02:09:59;;;;;;;;;;;;;;;;;;5015673;28;20016;-63
2022/06/04 02:12:25;;;;;;;;;;;;;;;;;;5014771;28;19921;-63
2022/06/04 02:14:51;;;;;;;;;;;;;;;;;;5015190;28;20016;-63
2022/06/04 02:17:17;;;;;;;;;;;;;;;;;;5014920;28;20395;-63
2022/06/04 02:19:43;;;;;;;;;;;;;;;;;;5014774;28;19925;-63
2022/06/04 02:22:10;;;;;;;;;;;;;;;;;;5015569;28;20019;-63
2022/06/04 02:24:36;;;;;;;;;;;;;;;;;;5015439;28;19921;-63
2022/06/04 02:27:04;;;;;;;;;;;;;;;;;;5029740;28;20012;-63
2022/06/04 02:29:30;;;;;;;;;;;;;;;;;;5034607;28;19975;-63
2022/06/04 02:31:56;;;;;;;;;;;;;;;;;;5034889;28;19921;-63
2022/06/04 02:34:22;;;;;;;;;;;;;;;;;;5034211;28;19970;-63
2022/06/04 02:36:48;;;;;;;;;;;;;;;;;;5034508;28;19921;-63
2022/06/04 02:39:14;;;;;;;;;;;;;;;;;;5033905;28;20367;-63
2022/06/04 02:41:40;;;;;;;;;;;;;;;;;;5033986;28;19925;-63
2022/06/04 02:44:07;;;;;;;;;;;;;;;;;;5034404;28;19925;-63
2022/06/04 02:46:33;;;;;;;;;;;;;;;;;;5034709;28;19928;-63
2022/06/04 02:48:59;;;;;;;;;;;;;;;;;;5033894;28;20304;-63
2022/06/04 02:51:25;;;;;;;;;;;;;;;;;;5034342;28;19921;-63
2022/06/04 02:53:51;;;;;;;;;;;;;;;;;;5034823;28;20015;-63
2022/06/04 02:56:17;;;;;;;;;;;;;;;;;;5033948;28;19984;-63
2022/06/04 02:58:43;;;;;;;;;;;;;;;;;;5034320;28;19925;-63
2022/06/04 03:01:10;;;;;;;;;;;;;;;;;;5034478;28;19929;-63
2022/06/04 03:03:36;;;;;;;;;;;;;;;;;;5033934;28;20038;-63
2022/06/04 03:06:02;;;;;;;;;;;;;;;;;;5033990;28;19925;-63
2022/06/04 03:08:28;;;;;;;;;;;;;;;;;;5034232;28;20011;-63
2022/06/04 03:10:54;;;;;;;;;;;;;;;;;;5033557;28;20486;-63
2022/06/04 03:13:20;;;;;;;;;;;;;;;;;;5034169;28;19925;-63
2022/06/04 03:15:46;;;;;;;;;;;;;;;;;;5034605;28;20130;-63
2022/06/04 03:18:13;;;;;;;;;;;;;;;;;;5033359;28;19972;-63
2022/06/04 03:20:39;;;;;;;;;;;;;;;;;;5034243;28;20346;-63
2022/06/04 03:23:06;;;;;;;;;;;;;;;;;;5034344;28;19921;-63
2022/06/04 03:25:32;;;;;;;;;;;;;;;;;;5030592;28;20284;-63
2022/06/04 03:27:58;;;;;;;;;;;;;;;;;;5014134;28;20007;-63
2022/06/04 03:30:26;;;;;;;;;;;;;;;;;;5013986;28;19973;-63
2022/06/04 03:32:52;;;;;;;;;;;;;;;;;;5013790;28;19922;-63
2022/06/04 03:35:18;;;;;;;;;;;;;;;;;;5012941;28;19952;-63
2022/06/04 03:37:44;;;;;;;;;;;;;;;;;;5013332;28;19925;-63
2022/06/04 03:40:10;;;;;;;;;;;;;;;;;;5012692;28;19937;-63
2022/06/04 03:42:36;;;;;;;;;;;;;;;;;;5012406;28;19921;-63
2022/06/04 03:45:02;;;;;;;;;;;;;;;;;;5013154;28;19921;-63
2022/06/04 03:47:28;;;;;;;;;;;;;;;;;;5013256;28;19921;-63
2022/06/04 03:49:54;;;;;;;;;;;;;;;;;;5013208;28;19927;-63
2022/06/04 03:52:20;;;;;;;;;;;;;;;;;;5016810;28;20008;-63
2022/06/04 03:54:55;;;;;;;;;;;;;;;;;;5016650;28;19921;-63
2022/06/04 03:57:41;;;;;;;;;;;;;;;;;;5014557;28;19925;-63
2022/06/04 04:00:07;;;;;;;;;;;;;;;;;;5016579;28;19935;-63
2022/06/04 04:02:33;;;;;;;;;;;;;;;;;;5016221;28;19921;-63
2022/06/04 04:04:59;;;;;;;;;;;;;;;;;;5016725;28;19922;-63
2022/06/04 04:07:25;;;;;;;;;;;;;;;;;;5017077;28;19995;-63
2022/06/04 04:09:51;;;;;;;;;;;;;;;;;;5016277;28;19929;-63
2022/06/04 04:12:17;;;;;;;;;;;;;;;;;;5016785;28;19972;-63
2022/06/04 04:14:43;;;;;;;;;;;;;;;;;;5017060;28;19922;-63
2022/06/04 04:17:09;;;;;;;;;;;;;;;;;;5015333;28;19971;-63
2022/06/04 04:19:35;;;;;;;;;;;;;;;;;;5015808;28;19956;-63
2022/06/04 04:22:01;;;;;;;;;;;;;;;;;;5016245;28;20291;-63
2022/06/04 04:24:27;;;;;;;;;;;;;;;;;;5017227;28;19925;-63
2022/06/04 04:26:53;;;;;;;;;;;;;;;;;;5029665;28;19961;-63
2022/06/04 04:29:19;;;;;;;;;;;;;;;;;;5036158;28;20012;-63
2022/06/04 04:31:45;;;;;;;;;;;;;;;;;;5035980;28;19928;-63
2022/06/04 04:34:11;;;;;;;;;;;;;;;;;;5036140;28;20371;-63
2022/06/04 04:36:38;;;;;;;;;;;;;;;;;;5036293;28;19932;-63
2022/06/04 04:39:04;;;;;;;;;;;;;;;;;;5035826;28;19932;-63
2022/06/04 04:41:30;;;;;;;;;;;;;;;;;;5035412;28;20011;-63
2022/06/04 04:43:56;;;;;;;;;;;;;;;;;;5035841;28;19971;-63
2022/06/04 04:46:22;;;;;;;;;;;;;;;;;;5036448;28;19921;-63
2022/06/04 04:48:48;;;;;;;;;;;;;;;;;;5035066;28;19921;-63
2022/06/04 04:51:14;;;;;;;;;;;;;;;;;;5036012;28;19936;-63
2022/06/04 04:53:40;;;;;;;;;;;;;;;;;;5035819;28;19928;-63
2022/06/04 04:56:06;;;;;;;;;;;;;;;;;;5067192;28;20027;-63
2022/06/04 04:58:32;;;;;;;;;;;;;;;;;;5035528;28;19929;-63
2022/06/04 05:00:58;;;;;;;;;;;;;;;;;;5034998;28;19928;-63
2022/06/04 05:03:24;;;;;;;;;;;;;;;;;;5034707;28;19925;-63
2022/06/04 05:05:49;;;;;;;;;;;;;;;;;;5035395;28;20024;-63
2022/06/04 05:08:15;;;;;;;;;;;;;;;;;;5035132;28;19921;-63
2022/06/04 05:10:43;;;;;;;;;;;;;;;;;;5034802;28;19931;-63
2022/06/04 05:13:09;;;;;;;;;;;;;;;;;;5035445;28;19950;-63
2022/06/04 05:15:35;;;;;;;;;;;;;;;;;;5035080;28;19961;-63
2022/06/04 05:18:01;;;;;;;;;;;;;;;;;;5034597;28;19956;-63
2022/06/04 05:20:28;;;;;;;;;;;;;;;;;;5035414;28;19975;-63
2022/06/04 05:22:54;;;;;;;;;;;;;;;;;;5035331;28;19960;-63
2022/06/04 05:25:20;;;;;;;;;;;;;;;;;;5033007;28;20012;-63
2022/06/04 05:27:46;;;;;;;;;;;;;;;;;;5015027;28;19972;-63
2022/06/04 05:30:12;;;;;;;;;;;;;;;;;;5015457;28;19976;-63
2022/06/04 05:32:38;;;;;;;;;;;;;;;;;;5014217;28;19971;-63
2022/06/04 05:35:04;;;;;;;;;;;;;;;;;;5015389;28;20273;-63
2022/06/04 05:37:30;;;;;;;;;;;;;;;;;;5014919;28;19928;-63
2022/06/04 05:39:56;;;;;;;;;;;;;;;;;;5014327;28;19932;-63
2022/06/04 05:42:22;;;;;;;;;;;;;;;;;;5015622;28;19927;-63
2022/06/04 05:44:48;;;;;;;;;;;;;;;;;;5015688;28;20356;-63
2022/06/04 05:47:14;;;;;;;;;;;;;;;;;;5014989;28;20036;-63
2022/06/04 05:49:42;;;;;;;;;;;;;;;;;;5014817;28;19921;-63
2022/06/04 05:52:08;;;;;;;;;;;;;;;;;;5015318;28;19968;-63
2022/06/04 05:54:34;;;;;;;;;;;;;;;;;;5014747;28;19964;-63
2022/06/04 05:57:00;;;;;;;;;;;;;;;;;;5015090;28;19921;-63
2022/06/04 05:59:26;;;;;;;;;;;;;;;;;;5014963;28;19929;-63
2022/06/04 06:01:52;;;;;;;;;;;;;;;;;;5014275;28;20276;-63
2022/06/04 06:04:18;;;;;;;;;;;;;;;;;;5014856;28;19921;-63
2022/06/04 06:06:44;;;;;;;;;;;;;;;;;;5013472;28;19921;-63
2022/06/04 06:09:10;;;;;;;;;;;;;;;;;;5014211;28;19928;-63
2022/06/04 06:11:36;;;;;;;;;;;;;;;;;;5015246;28;20299;-63
2022/06/04 06:14:02;;;;;;;;;;;;;;;;;;5013715;28;19921;-63
2022/06/04 06:16:28;;;;;;;;;;;;;;;;;;5014150;28;19925;-63
2022/06/04 06:18:57;;;;;;;;;;;;;;;;;;5015071;28;19929;-63
2022/06/04 06:21:22;;;;;;;;;;;;;;;;;;5014460;28;19929;-63
2022/06/04 06:23:48;;;;;;;;;;;;;;;;;;5013946;28;19922;-63
2022/06/04 06:26:15;;;;;;;;;;;;;;;;;;5023367;28;19921;-63
2022/06/04 06:28:40;;;;;;;;;;;;;;;;;;5034265;28;19932;-63
2022/06/04 06:31:07;;;;;;;;;;;;;;;;;;5033306;28;19921;-63
2022/06/04 06:33:33;;;;;;;;;;;;;;;;;;5034399;28;19921;-63
2022/06/04 06:35:59;;;;;;;;;;;;;;;;;;5033835;28;19948;-63
2022/06/04 06:38:25;;;;;;;;;;;;;;;;;;5033203;28;19961;-63
2022/06/04 06:40:52;;;;;;;;;;;;;;;;;;5033467;28;19979;-63
2022/06/04 06:43:19;;;;;;;;;;;;;;;;;;5033436;28;19971;-63
2022/06/04 06:45:45;;;;;;;;;;;;;;;;;;5033829;28;19929;-63
2022/06/04 06:48:11;;;;;;;;;;;;;;;;;;5034190;28;20420;-63
2022/06/04 06:50:37;;;;;;;;;;;;;;;;;;5034198;28;19925;-63
2022/06/04 06:53:03;;;;;;;;;;;;;;;;;;5033789;28;19921;-63
2022/06/04 06:55:29;;;;;;;;;;;;;;;;;;5033750;28;19932;-63
2022/06/04 06:57:55;;;;;;;;;;;;;;;;;;5033748;28;19926;-63
2022/06/04 07:00:21;;;;;;;;;;;;;;;;;;5032749;28;19925;-63
2022/06/04 07:02:47;;;;;;;;;;;;;;;;;;5033756;28;20026;-63
2022/06/04 07:05:13;;;;;;;;;;;;;;;;;;5033839;28;19929;-63
2022/06/04 07:07:39;;;;;;;;;;;;;;;;;;5033033;28;19925;-63
2022/06/04 07:10:05;;;;;;;;;;;;;;;;;;5033670;28;19953;-63
2022/06/04 07:12:31;;;;;;;;;;;;;;;;;;5034474;28;19925;-63
2022/06/04 07:14:57;;;;;;;;;;;;;;;;;;5033980;28;19925;-63
2022/06/04 07:17:23;;;;;;;;;;;;;;;;;;5034374;28;20260;-63
2022/06/04 07:19:49;;;;;;;;;;;;;;;;;;5034586;28;19979;-63
2022/06/04 07:22:15;;;;;;;;;;;;;;;;;;5033996;28;19921;-63
2022/06/04 07:24:41;;;;;;;;;;;;;;;;;;5033855;28;19968;-63
2022/06/04 07:27:08;;;;;;;;;;;;;;;;;;5021159;28;19925;-63
2022/06/04 07:29:34;;;;;;;;;;;;;;;;;;5017601;28;20004;-63
2022/06/04 07:32:00;;;;;;;;;;;;;;;;;;5017359;28;19976;-63
2022/06/04 07:34:26;;;;;;;;;;;;;;;;;;5017839;28;19976;-63
2022/06/04 07:36:51;;;;;;;;;;;;;;;;;;5017612;28;19975;-63
2022/06/04 07:39:18;;;;;;;;;;;;;;;;;;5016921;28;19929;-63
2022/06/04 07:41:44;;;;;;;;;;;;;;;;;;5017183;28;19932;-63
2022/06/04 07:44:11;;;;;;;;;;;;;;;;;;5017755;28;19929;-63
2022/06/04 07:46:37;;;;;;;;;;;;;;;;;;5015259;28;19925;-63
2022/06/04 07:49:03;;;;;;;;;;;;;;;;;;5017089;28;20386;-63
2022/06/04 07:51:29;;;;;;;;;;;;;;;;;;5017053;28;19921;-63
2022/06/04 07:53:55;;;;;;;;;;;;;;;;;;5015248;28;19944;-63
2022/06/04 07:56:21;;;;;;;;;;;;;;;;;;5017701;28;19921;-63
2022/06/04 07:58:47;;;;;;;;;;;;;;;;;;5016495;28;19929;-63
2022/06/04 08:01:16;;;;;;;;;;;;;;;;;;5016210;28;20320;-63
2022/06/04 08:03:42;;;;;;;;;;;;;;;;;;5017575;28;20017;-63
2022/06/04 08:06:10;;;;;;;;;;;;;;;;;;5017112;28;19957;-63
2022/06/04 08:08:35;;;;;;;;;;;;;;;;;;5016124;28;20004;-63
2022/06/04 08:11:30;;;;;;;;;;;;;;;;;;5017121;28;19953;-63
2022/06/04 08:13:47;;;;;;;;;;;;;;;;;;5016846;28;19932;-63
2022/06/04 08:16:13;;;;;;;;;;;;;;;;;;5016422;28;19925;-63
2022/06/04 08:18:39;;;;;;;;;;;;;;;;;;5016521;28;19926;-63
2022/06/04 08:21:05;;;;;;;;;;;;;;;;;;5016715;28;19943;-63
2022/06/04 08:23:31;;;;;;;;;;;;;;;;;;5016407;28;19925;-63
2022/06/04 08:25:57;;;;;;;;;;;;;;;;;;5015549;28;19925;-63
2022/06/04 08:28:23;;;;;;;;;;;;;;;;;;5017408;28;19925;-63
2022/06/04 08:30:49;;;;;;;;;;;;;;;;;;5016552;28;19926;-63
2022/06/04 08:33:15;;;;;;;;;;;;;;;;;;5017395;28;19926;-63
2022/06/04 08:35:42;;;;;;;;;;;;;;;;;;5016803;28;19925;-63
2022/06/04 08:38:07;;;;;;;;;;;;;;;;;;5015761;28;19936;-63
2022/06/04 08:40:33;;;;;;;;;;;;;;;;;;5016389;28;19926;-63
2022/06/04 08:42:59;;;;;;;;;;;;;;;;;;5016489;28;20249;-63
2022/06/04 08:45:25;;;;;;;;;;;;;;;;;;5016203;28;19925;-63
2022/06/04 08:47:52;;;;;;;;;;;;;;;;;;5016412;28;19925;-63
2022/06/04 08:50:18;;;;;;;;;;;;;;;;;;5016156;28;20426;-63
2022/06/04 08:52:44;;;;;;;;;;;;;;;;;;5015130;28;19972;-63
2022/06/04 08:57:54;;;;;;;;;;;;;;;;;;5015738;28;20276;-63
2022/06/04 09:00:20;;;;;;;;;;;;;;;;;;5016059;28;19921;-63
2022/06/04 09:02:46;;;;;;;;;;;;;;;;;;5015850;28;19921;-63
2022/06/04 09:05:12;;;;;;;;;;;;;;;;;;5015992;28;19922;-63
2022/06/04 09:07:39;;;;;;;;;;;;;;;;;;5013526;28;19945;-63
2022/06/04 09:10:05;;;;;;;;;;;;;;;;;;5015639;28;19922;-63
2022/06/04 09:12:31;;;;;;;;;;;;;;;;;;5015920;28;19925;-63
2022/06/04 09:14:57;;;;;;;;;;;;;;;;;;5015000;28;20032;-63
2022/06/04 09:17:23;;;;;;;;;;;;;;;;;;5015932;28;19926;-63
2022/06/04 09:19:49;;;;;;;;;;;;;;;;;;5014358;28;19932;-63
2022/06/04 09:22:15;;;;;;;;;;;;;;;;;;5015193;28;20029;-63
2022/06/04 09:24:41;;;;;;;;;;;;;;;;;;5016187;28;19932;-63
2022/06/04 09:27:07;;;;;;;;;;;;;;;;;;5032301;28;19921;-63
2022/06/04 09:29:33;;;;;;;;;;;;;;;;;;5034887;28;19928;-63
2022/06/04 09:31:59;;;;;;;;;;;;;;;;;;5035383;28;19921;-63
2022/06/04 09:34:24;;;;;;;;;;;;;;;;;;5035227;28;19925;-63
2022/06/04 09:36:50;;;;;;;;;;;;;;;;;;5034941;28;19925;-63
2022/06/04 09:39:16;;;;;;;;;;;;;;;;;;5035136;28;19932;-63
2022/06/04 09:41:42;;;;;;;;;;;;;;;;;;5067006;28;19925;-63
2022/06/04 09:44:08;;;;;;;;;;;;;;;;;;5066457;28;19979;-63
2022/06/04 09:46:34;;;;;;;;;;;;;;;;;;5035364;28;19921;-63
2022/06/04 09:49:01;;;;;;;;;;;;;;;;;;5066589;28;19927;-63
2022/06/04 09:51:27;;;;;;;;;;;;;;;;;;5033747;28;19925;-64
2022/06/04 09:53:53;;;;;;;;;;;;;;;;;;5034053;28;19921;-64
2022/06/04 09:56:19;;;;;;;;;;;;;;;;;;5034188;28;19925;-64
2022/06/04 09:58:46;;;;;;;;;;;;;;;;;;5033869;28;19966;-64
2022/06/04 10:01:12;;;;;;;;;;;;;;;;;;5035034;28;19930;-64
2022/06/04 10:03:38;;;;;;;;;;;;;;;;;;5034650;28;19925;-64
2022/06/04 10:06:04;;;;;;;;;;;;;;;;;;5034286;28;19971;-64
2022/06/04 10:08:30;;;;;;;;;;;;;;;;;;5034278;28;19925;-64
2022/06/04 10:10:57;;;;;;;;;;;;;;;;;;5034029;28;19928;-64
2022/06/04 10:16:08;;;;;;;;;;;;;;;;;;5034574;28;20299;-64
2022/06/04 10:18:35;;;;;;;;;;;;;;;;;;5033930;28;19925;-64
2022/06/04 10:21:01;;;;;;;;;;;;;;;;;;5033860;28;19921;-64
2022/06/04 10:23:27;;;;;;;;;;;;;;;;;;5034060;28;19944;-64
2022/06/04 10:25:52;;;;;;;;;;;;;;;;;;5028031;28;19921;-64
2022/06/04 10:28:18;;;;;;;;;;;;;;;;;;5014342;28;19936;-64
2022/06/04 10:30:48;;;;;;;;;;;;;;;;;;5014358;28;19928;-64
2022/06/04 10:33:14;;;;;;;;;;;;;;;;;;5014476;28;20391;-64
2022/06/04 10:35:40;;;;;;;;;;;;;;;;;;5013610;28;19983;-64
2022/06/04 10:38:06;;;;;;;;;;;;;;;;;;5014068;28;19968;-64
2022/06/04 10:40:32;;;;;;;;;;;;;;;;;;5013893;28;19926;-64
2022/06/04 10:42:58;;;;;;;;;;;;;;;;;;5013639;28;19928;-64
2022/06/04 10:45:24;;;;;;;;;;;;;;;;;;5013883;28;19922;-64
2022/06/04 10:47:50;;;;;;;;;;;;;;;;;;5013974;28;19921;-64
2022/06/04 10:50:16;;;;;;;;;;;;;;;;;;5013882;28;19931;-64
2022/06/04 10:52:42;;;;;;;;;;;;;;;;;;5014318;28;20268;-64
2022/06/04 10:55:08;;;;;;;;;;;;;;;;;;5014084;28;19922;-64
2022/06/04 10:57:35;;;;;;;;;;;;;;;;;;5013317;28;19929;-64
2022/06/04 11:00:01;;;;;;;;;;;;;;;;;;5013464;28;19984;-64
2022/06/04 11:02:27;;;;;;;;;;;;;;;;;;5014222;28;19933;-64
2022/06/04 11:04:53;;;;;;;;;;;;;;;;;;5013759;28;20360;-64
2022/06/04 11:07:19;;;;;;;;;;;;;;;;;;5014262;28;19928;-64
2022/06/04 11:09:45;;;;;;;;;;;;;;;;;;5013695;28;19922;-64
2022/06/04 11:12:11;;;;;;;;;;;;;;;;;;5013115;28;19932;-64
2022/06/04 11:14:37;;;;;;;;;;;;;;;;;;5013745;28;20008;-64
2022/06/04 11:17:03;;;;;;;;;;;;;;;;;;5013802;28;19928;-64
2022/06/04 11:19:29;;;;;;;;;;;;;;;;;;5011821;28;19929;-64
2022/06/04 11:21:55;;;;;;;;;;;;;;;;;;5013469;28;19960;-64
2022/06/04 11:24:24;;;;;;;;;;;;;;;;;;5013605;28;19925;-64
2022/06/04 11:26:50;;;;;;;;;;;;;;;;;;5026800;28;19925;-64
2022/06/04 11:29:16;;;;;;;;;;;;;;;;;;5033700;28;20387;-64
2022/06/04 11:31:42;;;;;;;;;;;;;;;;;;5033893;28;19955;-64
2022/06/04 11:34:09;;;;;;;;;;;;;;;;;;5032705;28;20316;-64
2022/06/04 11:36:35;;;;;;;;;;;;;;;;;;5033008;28;19921;-64
2022/06/04 11:39:01;;;;;;;;;;;;;;;;;;5032901;28;19929;-64
2022/06/04 11:41:28;;;;;;;;;;;;;;;;;;5032171;28;19933;-64
2022/06/04 11:43:54;;;;;;;;;;;;;;;;;;5032388;28;19925;-64
2022/06/04 11:46:20;;;;;;;;;;;;;;;;;;5033358;28;19925;-64
2022/06/04 11:48:46;;;;;;;;;;;;;;;;;;5032554;28;19947;-64
2022/06/04 11:51:12;;;;;;;;;;;;;;;;;;5032568;28;20537;-64
2022/06/04 11:53:38;;;;;;;;;;;;;;;;;;5032969;28;19975;-64
2022/06/04 11:56:04;;;;;;;;;;;;;;;;;;5032852;28;19928;-64
2022/06/04 11:58:30;;;;;;;;;;;;;;;;;;5030870;28;20439;-64
2022/06/04 12:00:56;;;;;;;;;;;;;;;;;;5033017;28;19928;-64
2022/06/04 12:03:23;;;;;;;;;;;;;;;;;;5033012;28;19921;-64
2022/06/04 12:05:49;;;;;;;;;;;;;;;;;;5031883;28;19971;-64
2022/06/04 12:08:15;;;;;;;;;;;;;;;;;;5032794;28;19948;-64
2022/06/04 12:10:41;;;;;;;;;;;;;;;;;;5033383;28;20295;-64
2022/06/04 12:13:08;;;;;;;;;;;;;;;;;;5036008;28;19925;-64
2022/06/04 12:15:34;;;;;;;;;;;;;;;;;;5036117;28;19944;-64
2022/06/04 12:18:00;;;;;;;;;;;;;;;;;;5036880;28;20372;-64
2022/06/04 12:25:56;;;;;;;;;;;;;;;;;;5035824;28;19921;-64
2022/06/04 12:28:22;;;;;;;;;;;;;;;;;;5035959;28;19921;-64
2022/06/04 12:30:49;;;;;;;;;;;;;;;;;;5035558;28;19925;-64
2022/06/04 12:33:15;;;;;;;;;;;;;;;;;;5034995;28;20285;-64
2022/06/04 12:35:41;;;;;;;;;;;;;;;;;;5035710;28;19924;-64
2022/06/04 12:38:07;;;;;;;;;;;;;;;;;;5035603;28;19929;-64
2022/06/04 12:40:33;;;;;;;;;;;;;;;;;;5034825;28;19925;-64
2022/06/04 12:42:59;;;;;;;;;;;;;;;;;;5034565;28;20011;-64
2022/06/04 12:45:24;;;;;;;;;;;;;;;;;;5035270;28;19968;-64
2022/06/04 12:47:50;;;;;;;;;;;;;;;;;;5035128;28;19921;-64
2022/06/04 12:50:18;;;;;;;;;;;;;;;;;;5034701;28;19928;-64
2022/06/04 12:52:46;;;;;;;;;;;;;;;;;;5035315;28;19975;-64
2022/06/04 12:55:12;;;;;;;;;;;;;;;;;;5035244;28;19928;-64
2022/06/04 12:57:39;;;;;;;;;;;;;;;;;;5034530;28;19978;-64
2022/06/04 13:00:05;;;;;;;;;;;;;;;;;;5034738;28;19985;-65
2022/06/04 13:02:31;;;;;;;;;;;;;;;;;;5034763;28;19925;-64
2022/06/04 13:04:57;;;;;;;;;;;;;;;;;;5034197;28;20167;-64
2022/06/04 13:07:23;;;;;;;;;;;;;;;;;;5034741;28;19921;-64
2022/06/04 13:09:49;;;;;;;;;;;;;;;;;;5034583;28;19925;-64
2022/06/04 13:12:15;;;;;;;;;;;;;;;;;;5033825;28;19921;-64
2022/06/04 13:14:41;;;;;;;;;;;;;;;;;;5034980;28;19925;-64
2022/06/04 13:17:07;;;;;;;;;;;;;;;;;;5034913;28;19927;-64
2022/06/04 13:19:33;;;;;;;;;;;;;;;;;;5033775;28;20304;-64
2022/06/04 13:21:59;;;;;;;;;;;;;;;;;;5034529;28;19925;-64
2022/06/04 13:24:25;;;;;;;;;;;;;;;;;;5034373;28;19921;-64
2022/06/04 13:26:51;;;;;;;;;;;;;;;;;;5020289;28;19922;-64
2022/06/04 13:29:17;;;;;;;;;;;;;;;;;;5014356;28;19921;-64
2022/06/04 13:31:43;;;;;;;;;;;;;;;;;;5014411;28;19922;-64
2022/06/04 13:34:09;;;;;;;;;;;;;;;;;;5014102;28;19988;-64
2022/06/04 13:36:35;;;;;;;;;;;;;;;;;;5014569;28;20017;-64
2022/06/04 13:39:02;;;;;;;;;;;;;;;;;;5014561;28;19929;-64
2022/06/04 13:44:12;;;;;;;;;;;;;;;;;;5014750;28;20299;-64
2022/06/04 13:46:38;;;;;;;;;;;;;;;;;;5015082;28;19922;-64
2022/06/04 13:49:04;;;;;;;;;;;;;;;;;;5013950;28;19929;-64
2022/06/04 13:51:30;;;;;;;;;;;;;;;;;;5014735;28;19952;-64
2022/06/04 13:53:56;;;;;;;;;;;;;;;;;;5014668;28;20048;-64
2022/06/04 13:56:23;;;;;;;;;;;;;;;;;;5013713;28;20412;-64
2022/06/04 13:58:49;;;;;;;;;;;;;;;;;;5014129;28;19925;-64
2022/06/04 14:01:15;;;;;;;;;;;;;;;;;;5014318;28;19921;-64
2022/06/04 14:03:41;;;;;;;;;;;;;;;;;;5014211;28;19925;-64
2022/06/04 14:06:07;;;;;;;;;;;;;;;;;;5014116;28;19925;-64
2022/06/04 14:08:33;;;;;;;;;;;;;;;;;;5013920;28;19987;-64
2022/06/04 14:10:59;;;;;;;;;;;;;;;;;;5013234;28;19921;-64
2022/06/04 14:13:25;;;;;;;;;;;;;;;;;;5013792;28;19921;-64
2022/06/04 14:15:51;;;;;;;;;;;;;;;;;;5013788;28;20368;-65
2022/06/04 14:18:18;;;;;;;;;;;;;;;;;;5013277;28;20318;-65
2022/06/04 14:20:43;;;;;;;;;;;;;;;;;;5013785;28;20288;-65
2022/06/04 14:23:09;;;;;;;;;;;;;;;;;;5013219;28;19926;-65
2022/06/04 14:25:35;;;;;;;;;;;;;;;;;;5016230;28;19921;-65
2022/06/04 14:28:03;;;;;;;;;;;;;;;;;;5033406;28;19925;-65
2022/06/04 14:30:31;;;;;;;;;;;;;;;;;;5031312;28;19921;-65
2022/06/04 14:32:59;;;;;;;;;;;;;;;;;;5032581;28;20021;-65
2022/06/04 14:35:25;;;;;;;;;;;;;;;;;;5031846;28;19928;-65
2022/06/04 14:37:51;;;;;;;;;;;;;;;;;;5032898;28;19921;-65
2022/06/04 14:40:17;;;;;;;;;;;;;;;;;;5032235;28;19932;-63
2022/06/04 14:42:44;;;;;;;;;;;;;;;;;;5033203;28;19921;-63
2022/06/04 14:45:10;;;;;;;;;;;;;;;;;;5033177;28;20402;-63
2022/06/04 14:47:36;;;;;;;;;;;;;;;;;;5032804;28;19921;-63
2022/06/04 14:50:01;;;;;;;;;;;;;;;;;;5033129;28;20016;-63
2022/06/04 14:52:28;;;;;;;;;;;;;;;;;;5033066;28;19932;-63
2022/06/04 14:54:54;;;;;;;;;;;;;;;;;;5032517;28;19936;-63
2022/06/04 14:57:22;;;;;;;;;;;;;;;;;;5033100;28;19921;-63
2022/06/04 14:59:48;;;;;;;;;;;;;;;;;;5032522;28;19929;-63
2022/06/04 15:02:14;;;;;;;;;;;;;;;;;;5032154;28;19971;-63
2022/06/04 15:04:44;;;;;;;;;;;;;;;;;;5032885;28;19932;-63
2022/06/04 15:07:10;;;;;;;;;;;;;;;;;;5033165;28;19921;-63
2022/06/04 15:09:36;;;;;;;;;;;;;;;;;;5032221;28;20291;-63
2022/06/04 15:12:02;;;;;;;;;;;;;;;;;;5033038;28;20015;-63
2022/06/04 15:14:28;;;;;;;;;;;;;;;;;;5033068;28;19925;-63
2022/06/04 15:16:54;;;;;;;;;;;;;;;;;;5032391;28;19928;-63
2022/06/04 15:19:20;;;;;;;;;;;;;;;;;;5032875;28;20057;-63
2022/06/04 15:21:46;;;;;;;;;;;;;;;;;;5032579;28;19925;-63
2022/06/04 15:24:12;;;;;;;;;;;;;;;;;;5032451;28;19921;-63
2022/06/04 15:26:37;;;;;;;;;;;;;;;;;;5032493;28;20024;-63
2022/06/04 15:34:33;;;;;;;;;;;;;;;;;;5032280;28;20370;-63
2022/06/04 15:36:59;;;;;;;;;;;;;;;;;;5064199;28;20032;-63
2022/06/04 15:39:25;;;;;;;;;;;;;;;;;;5031388;28;20360;-63
2022/06/04 15:41:52;;;;;;;;;;;;;;;;;;5032012;28;19932;-63
2022/06/04 15:44:18;;;;;;;;;;;;;;;;;;5032377;28;20027;-63
2022/06/04 15:46:44;;;;;;;;;;;;;;;;;;5033901;28;20024;-63
2022/06/04 15:49:10;;;;;;;;;;;;;;;;;;5036119;28;20011;-63
2022/06/04 15:57:08;;;;;;;;;;;;;;;;;;5035654;28;19932;-63
2022/06/04 15:59:34;;;;;;;;;;;;;;;;;;5035687;28;19927;-63
2022/06/04 16:01:59;;;;;;;;;;;;;;;;;;5035623;28;19924;-63
2022/06/04 16:04:25;;;;;;;;;;;;;;;;;;5035702;28;19921;-63
2022/06/04 16:06:51;;;;;;;;;;;;;;;;;;5035855;28;19927;-63
2022/06/04 16:09:17;;;;;;;;;;;;;;;;;;5035089;28;20023;-63
2022/06/04 16:11:43;;;;;;;;;;;;;;;;;;5035708;28;19928;-63
2022/06/04 16:14:09;;;;;;;;;;;;;;;;;;5067344;28;19921;-63
2022/06/04 16:16:39;;;;;;;;;;;;;;;;;;5034957;28;20007;-63
2022/06/04 16:19:05;;;;;;;;;;;;;;;;;;5067388;28;19944;-63
2022/06/04 16:21:31;;;;;;;;;;;;;;;;;;5035636;28;19929;-63
2022/06/04 16:23:58;;;;;;;;;;;;;;;;;;5035131;28;19986;-63
2022/06/04 16:26:24;;;;;;;;;;;;;;;;;;5035421;28;19925;-63
2022/06/04 16:28:50;;;;;;;;;;;;;;;;;;5035515;28;19931;-63
2022/06/04 16:31:16;;;;;;;;;;;;;;;;;;5034805;28;19980;-63
2022/06/04 16:33:43;;;;;;;;;;;;;;;;;;5035515;28;19921;-63
2022/06/04 16:36:09;;;;;;;;;;;;;;;;;;5035303;28;19925;-63
2022/06/04 16:38:38;;;;;;;;;;;;;;;;;;5034701;28;19921;-63
2022/06/04 16:43:48;;;;;;;;;;;;;;;;;;5035049;28;19924;-63
2022/06/04 16:46:14;;;;;;;;;;;;;;;;;;5034729;28;19921;-63
2022/06/04 16:48:41;;;;;;;;;;;;;;;;;;5035239;28;19929;-63
2022/06/04 16:51:07;;;;;;;;;;;;;;;;;;5035010;28;19921;-63
2022/06/04 16:53:33;;;;;;;;;;;;;;;;;;5034644;28;19921;-63
2022/06/04 16:55:59;;;;;;;;;;;;;;;;;;5034906;28;19928;-63
2022/06/04 16:58:25;;;;;;;;;;;;;;;;;;5034045;28;20311;-63
2022/06/04 17:00:53;;;;;;;;;;;;;;;;;;5034049;28;19932;-63
2022/06/04 17:03:19;;;;;;;;;;;;;;;;;;5034726;28;19996;-63
2022/06/04 17:05:45;;;;;;;;;;;;;;;;;;5034462;28;20013;-63
2022/06/04 17:08:11;;;;;;;;;;;;;;;;;;5034075;28;20314;-63
2022/06/04 17:10:37;;;;;;;;;;;;;;;;;;5034426;28;19925;-63
2022/06/04 17:13:03;;;;;;;;;;;;;;;;;;5034737;28;19928;-63
2022/06/04 17:15:29;;;;;;;;;;;;;;;;;;5033751;28;19925;-63